Time;durP1;ratioP1;P1;durP2;ratioP2;P2;SDS_P1;SDS_P2;PMS_P1;PMS_P2;Temp;Humidity;BMP_temperature;BMP_pressure;BME280_temperature;BME280_humidity;BME280_pressure;Samples;Min_cycle;Max_cycle;Signal;HPM_P1;HPM_P2
2024/01/10 00:01:34;;;;;;;15.00;6.50;;;-3.40;99.90;;;;;;5019951;28;20046;-68
2024/01/10 00:04:00;;;;;;;15.20;7.73;;;-3.40;99.90;;;;;;4999453;28;20498;-68
2024/01/10 00:06:26;;;;;;;17.92;8.18;;;-3.40;99.90;;;;;;5020808;28;20080;-68
2024/01/10 00:08:51;;;;;;;15.70;7.57;;;-3.40;99.90;;;;;;5003269;28;20050;-68
2024/01/10 00:11:17;;;;;;;14.97;7.07;;;-3.40;99.90;;;;;;4998119;28;20041;-68
2024/01/10 00:13:43;;;;;;;16.55;6.82;;;-3.40;99.90;;;;;;5013297;28;20486;-68
2024/01/10 00:16:11;;;;;;;17.33;7.17;;;-3.40;99.90;;;;;;5016504;28;20060;-68
2024/01/10 00:18:37;;;;;;;14.57;7.00;;;-3.40;99.90;;;;;;5017306;28;20129;-68
2024/01/10 00:21:03;;;;;;;15.27;7.20;;;-3.40;99.90;;;;;;5016376;28;20128;-68
2024/01/10 00:23:31;;;;;;;12.13;6.43;;;-3.40;99.90;;;;;;5002768;28;20508;-68
2024/01/10 00:25:57;;;;;;;17.60;8.00;;;-3.40;99.90;;;;;;5018706;28;20049;-68
2024/01/10 00:28:22;;;;;;;17.13;8.27;;;-3.50;99.90;;;;;;5018871;28;20103;-67
2024/01/10 00:30:48;;;;;;;11.67;6.97;;;-3.50;99.90;;;;;;5013770;28;20037;-68
2024/01/10 00:33:14;;;;;;;14.57;8.03;;;-3.40;99.90;;;;;;5018426;28;20375;-68
2024/01/10 00:35:39;;;;;;;13.77;7.50;;;-3.50;99.90;;;;;;5018768;28;20041;-68
2024/01/10 00:38:05;;;;;;;16.87;8.63;;;-3.40;99.90;;;;;;5019584;28;20049;-68
2024/01/10 00:40:31;;;;;;;17.33;8.00;;;-3.40;99.90;;;;;;5017617;28;20049;-68
2024/01/10 00:42:57;;;;;;;17.53;7.80;;;-3.40;99.90;;;;;;5002019;28;20261;-67
2024/01/10 00:45:22;;;;;;;15.23;7.43;;;-3.40;99.90;;;;;;5016006;28;20290;-68
2024/01/10 00:47:51;;;;;;;18.37;8.10;;;-3.50;99.90;;;;;;5011027;28;20140;-68
2024/01/10 00:50:17;;;;;;;18.10;7.82;;;-3.50;99.90;;;;;;5022880;28;20087;-67
2024/01/10 00:52:46;;;;;;;15.63;7.53;;;-3.50;99.90;;;;;;5014665;28;20461;-68
2024/01/10 00:55:12;;;;;;;16.08;8.20;;;-3.50;99.90;;;;;;5013846;28;20100;-68
2024/01/10 00:57:38;;;;;;;18.45;7.75;;;-3.50;99.90;;;;;;5017134;28;20050;-67
2024/01/10 01:00:06;;;;;;;18.27;7.95;;;-3.50;99.90;;;;;;5016930;28;20045;-68
2024/01/10 01:02:34;;;;;;;16.08;7.90;;;-3.50;99.90;;;;;;5015254;28;20342;-67
2024/01/10 01:05:00;;;;;;;16.73;7.75;;;-3.50;99.90;;;;;;5020583;28;20049;-68
2024/01/10 01:07:26;;;;;;;15.27;8.37;;;-3.50;99.90;;;;;;5014251;28;20041;-67
2024/01/10 01:09:52;;;;;;;14.70;7.97;;;-3.50;99.90;;;;;;5016544;28;20064;-68
2024/01/10 01:12:17;;;;;;;15.57;7.70;;;-3.60;99.90;;;;;;5013802;28;20049;-67
2024/01/10 01:14:43;;;;;;;18.43;8.27;;;-3.60;99.90;;;;;;5017896;28;20041;-68
2024/01/10 01:17:09;;;;;;;16.50;7.73;;;-3.60;99.90;;;;;;5015798;28;20038;-68
2024/01/10 01:19:35;;;;;;;18.00;8.00;;;-3.60;99.90;;;;;;5016345;28;20060;-68
2024/01/10 01:22:00;;;;;;;16.70;9.23;;;-3.60;99.90;;;;;;5015861;28;20079;-68
2024/01/10 01:24:29;;;;;;;18.50;8.15;;;-3.60;99.90;;;;;;5020033;28;20045;-68
2024/01/10 01:26:54;;;;;;;16.20;8.43;;;-3.60;99.90;;;;;;5014438;28;20041;-68
2024/01/10 01:29:20;;;;;;;19.47;8.57;;;-3.70;99.90;;;;;;5025452;28;20124;-68
2024/01/10 01:31:46;;;;;;;15.55;7.55;;;-3.70;99.90;;;;;;5021323;28;20656;-67
2024/01/10 01:34:12;;;;;;;15.13;9.15;;;-3.70;99.90;;;;;;5016782;28;20048;-67
2024/01/10 01:36:38;;;;;;;18.93;8.93;;;-3.70;99.90;;;;;;5016293;28;20109;-68
2024/01/10 01:39:06;;;;;;;18.30;7.47;;;-3.70;99.90;;;;;;5021964;28;20140;-68
2024/01/10 01:41:32;;;;;;;15.13;7.95;;;-3.80;99.90;;;;;;5015612;28;20056;-67
2024/01/10 01:43:57;;;;;;;18.17;8.70;;;-3.70;99.90;;;;;;5025348;28;20092;-67
2024/01/10 01:46:23;;;;;;;20.23;8.93;;;-3.80;99.90;;;;;;5021321;28;20734;-67
2024/01/10 01:48:52;;;;;;;18.95;8.50;;;-3.80;99.90;;;;;;5017213;28;20148;-68
2024/01/10 01:51:21;;;;;;;19.25;8.05;;;-3.80;99.90;;;;;;5020802;28;20057;-68
2024/01/10 01:53:48;;;;;;;19.05;9.88;;;-3.70;99.90;;;;;;5022056;28;20042;-68
2024/01/10 01:56:15;;;;;;;19.83;9.05;;;-3.70;99.90;;;;;;5005822;28;20049;-68
2024/01/10 01:58:43;;;;;;;17.05;8.90;;;-3.70;99.90;;;;;;5019463;28;20057;-67
2024/01/10 02:01:12;;;;;;;21.65;9.98;;;-3.80;99.90;;;;;;5023501;28;20044;-68
2024/01/10 02:03:40;;;;;;;21.02;9.00;;;-3.70;99.90;;;;;;4999471;28;20406;-68
2024/01/10 02:06:06;;;;;;;18.08;8.55;;;-3.70;99.90;;;;;;5018611;28;20049;-67
2024/01/10 02:08:35;;;;;;;18.17;9.13;;;-3.70;99.90;;;;;;5021603;28;20044;-67
2024/01/10 02:11:02;;;;;;;18.35;8.73;;;-3.70;99.90;;;;;;5021617;28;20111;-68
2024/01/10 02:13:28;;;;;;;19.55;8.80;;;-3.70;99.90;;;;;;5023139;28;20046;-68
2024/01/10 02:15:54;;;;;;;20.10;9.63;;;-3.70;99.90;;;;;;5015871;28;20053;-68
2024/01/10 02:18:20;;;;;;;21.60;9.20;;;-3.70;99.90;;;;;;5021248;28;20114;-68
2024/01/10 02:20:46;;;;;;;20.52;9.30;;;-3.70;99.90;;;;;;5020863;28;20084;-67
2024/01/10 02:23:12;;;;;;;21.47;10.03;;;-3.70;99.90;;;;;;5018561;28;20454;-67
2024/01/10 02:25:39;;;;;;;17.77;7.82;;;-3.70;99.90;;;;;;5019674;28;20073;-67
2024/01/10 02:28:11;;;;;;;16.77;7.72;;;-3.70;99.90;;;;;;5021075;28;20124;-68
2024/01/10 02:30:37;;;;;;;17.98;8.75;;;-3.60;99.90;;;;;;5020556;28;20045;-67
2024/01/10 02:33:03;;;;;;;17.38;8.73;;;-3.60;99.90;;;;;;5015407;28;20046;-68
2024/01/10 02:35:32;;;;;;;18.05;7.93;;;-3.60;99.90;;;;;;5020764;28;20049;-67
2024/01/10 02:37:58;;;;;;;17.30;8.63;;;-3.60;99.90;;;;;;5033823;28;20075;-67
2024/01/10 02:40:24;;;;;;;20.63;9.65;;;-3.60;99.90;;;;;;5019356;28;20506;-68
2024/01/10 02:42:51;;;;;;;19.93;8.63;;;-3.60;99.90;;;;;;5019808;28;20168;-67
2024/01/10 02:45:19;;;;;;;18.02;9.43;;;-3.50;99.90;;;;;;5021529;28;20532;-67
2024/01/10 02:47:48;;;;;;;20.08;9.15;;;-3.50;99.90;;;;;;5016147;28;20052;-68
2024/01/10 02:50:13;;;;;;;19.77;8.85;;;-3.60;99.90;;;;;;5026475;28;20645;-67
2024/01/10 02:52:42;;;;;;;19.17;8.60;;;-3.40;99.90;;;;;;5024247;28;20037;-68
2024/01/10 02:55:10;;;;;;;20.38;9.25;;;-3.50;99.90;;;;;;5022589;28;20061;-69
2024/01/10 02:57:38;;;;;;;19.17;8.43;;;-3.50;99.90;;;;;;5022395;28;20040;-69
2024/01/10 03:00:05;;;;;;;19.83;8.90;;;-3.50;99.90;;;;;;5023869;28;20077;-69
2024/01/10 03:02:31;;;;;;;;;;;-3.50;99.90;;;;;;5024457;28;20563;-69
2024/01/10 03:04:56;;;;;;;15.48;7.57;;;-3.50;99.90;;;;;;5022861;28;19928;-68
2024/01/10 03:07:24;;;;;;;17.83;8.67;;;-3.40;99.90;;;;;;5022559;28;20037;-69
2024/01/10 03:09:53;;;;;;;21.27;8.98;;;-3.50;99.90;;;;;;5023611;28;20041;-66
2024/01/10 03:12:19;;;;;;;17.95;8.45;;;-3.50;99.90;;;;;;5024695;28;20192;-67
2024/01/10 03:14:45;;;;;;;22.37;9.73;;;-3.50;99.90;;;;;;5020771;28;20375;-66
2024/01/10 03:17:10;;;;;;;17.48;8.85;;;-3.50;99.90;;;;;;5023981;28;20410;-66
2024/01/10 03:19:42;;;;;;;16.20;8.00;;;-3.50;99.90;;;;;;5021508;28;20041;-66
2024/01/10 03:22:08;;;;;;;18.27;8.82;;;-3.50;99.90;;;;;;5017241;28;20156;-67
2024/01/10 03:24:34;;;;;;;17.13;7.97;;;-3.50;99.90;;;;;;5022751;28;20054;-66
2024/01/10 03:26:59;;;;;;;18.55;8.85;;;-3.50;99.90;;;;;;4995269;28;20045;-67
2024/01/10 03:29:25;;;;;;;20.27;8.37;;;-3.50;99.90;;;;;;5019534;28;20124;-67
2024/01/10 03:31:51;;;;;;;16.20;7.50;;;-3.50;99.90;;;;;;5023396;28;20037;-67
2024/01/10 03:34:17;;;;;;;21.43;8.43;;;-3.50;99.90;;;;;;5019305;28;20442;-66
2024/01/10 03:36:43;;;;;;;19.20;8.98;;;-3.50;99.90;;;;;;5020887;28;20037;-66
2024/01/10 03:39:09;;;;;;;19.30;8.63;;;-3.50;99.90;;;;;;5024109;28;20056;-67
2024/01/10 03:41:35;;;;;;;;;;;-3.60;99.90;;;;;;5024585;28;20088;-67
2024/01/10 03:44:01;;;;;;;18.15;8.40;;;-3.60;99.90;;;;;;5021793;28;20341;-68
2024/01/10 03:46:26;;;;;;;19.23;8.60;;;-3.60;99.90;;;;;;5022589;28;20057;-67
2024/01/10 03:48:52;;;;;;;15.83;8.50;;;-3.60;99.90;;;;;;5017656;28;20061;-67
2024/01/10 03:51:19;;;;;;;22.37;9.33;;;-3.60;99.90;;;;;;5021911;28;20042;-66
2024/01/10 03:53:45;;;;;;;21.25;9.23;;;-3.60;99.90;;;;;;5017253;28;20069;-67
2024/01/10 03:56:12;;;;;;;21.20;9.80;;;-3.60;99.90;;;;;;5018104;28;20056;-67
2024/01/10 03:58:38;;;;;;;19.33;10.05;;;-3.60;99.90;;;;;;5022976;28;20121;-67
2024/01/10 04:01:09;;;;;;;19.43;9.87;;;-3.60;99.90;;;;;;5021583;28;20144;-67
2024/01/10 04:03:35;;;;;;;18.88;8.90;;;-3.60;99.90;;;;;;5022125;28;20033;-66
2024/01/10 04:06:02;;;;;;;22.60;9.60;;;-3.60;99.90;;;;;;5023856;28;20369;-66
2024/01/10 04:08:27;;;;;;;22.73;10.18;;;-3.60;99.90;;;;;;5025179;28;20053;-66
2024/01/10 04:10:53;;;;;;;18.23;8.40;;;-3.70;99.90;;;;;;5004107;28;21466;-66
2024/01/10 04:13:19;;;;;;;21.27;8.97;;;-3.70;99.90;;;;;;5018492;28;20473;-66
2024/01/10 04:15:44;;;;;;;20.10;9.10;;;-3.70;99.90;;;;;;5017503;28;20033;-66
2024/01/10 04:18:10;;;;;;;21.70;9.77;;;-3.70;99.90;;;;;;5020221;28;20116;-66
2024/01/10 04:20:36;;;;;;;20.67;9.00;;;-3.70;99.90;;;;;;5021976;28;20037;-69
2024/01/10 04:23:02;;;;;;;19.48;9.73;;;-3.70;99.90;;;;;;5013896;28;20111;-69
2024/01/10 04:25:27;;;;;;;23.70;9.60;;;-3.70;99.90;;;;;;5021877;28;20449;-69
2024/01/10 04:27:53;;;;;;;28.60;9.67;;;-3.70;99.90;;;;;;5021789;28;20421;-69
2024/01/10 04:30:18;;;;;;;21.00;9.40;;;-3.70;99.90;;;;;;5019291;28;20080;-68
2024/01/10 04:32:44;;;;;;;18.53;9.70;;;-3.70;99.90;;;;;;5023438;28;20042;-69
2024/01/10 04:35:10;;;;;;;24.13;9.87;;;-3.70;99.90;;;;;;5019364;28;20414;-69
2024/01/10 04:37:35;;;;;;;21.77;9.40;;;-3.70;99.90;;;;;;5023804;28;20061;-68
2024/01/10 04:40:01;;;;;;;24.50;10.00;;;-3.80;99.90;;;;;;5020435;28;20037;-69
2024/01/10 04:42:27;;;;;;;20.70;8.87;;;-3.80;99.90;;;;;;5023257;28;20033;-69
2024/01/10 04:44:52;;;;;;;16.23;8.40;;;-3.80;99.90;;;;;;5019261;28;20045;-69
2024/01/10 04:47:20;;;;;;;20.50;9.18;;;-3.80;99.90;;;;;;5022344;28;20422;-69
2024/01/10 04:49:48;;;;;;;23.13;9.97;;;-3.80;99.90;;;;;;5020303;28;20039;-68
2024/01/10 04:52:14;;;;;;;18.35;9.93;;;-3.80;99.90;;;;;;5020939;28;20084;-69
2024/01/10 04:54:39;;;;;;;21.77;9.23;;;-3.80;99.90;;;;;;5021698;28;20506;-68
2024/01/10 04:57:05;;;;;;;16.37;7.93;;;-3.80;99.90;;;;;;5020628;28;20045;-68
2024/01/10 04:59:31;;;;;;;21.43;9.33;;;-3.80;99.90;;;;;;5020344;28;20041;-69
2024/01/10 05:01:56;;;;;;;18.97;9.10;;;-3.70;99.90;;;;;;5019776;28;20081;-69
2024/01/10 05:04:22;;;;;;;19.30;8.90;;;-3.80;99.90;;;;;;5007228;28;20045;-69
2024/01/10 05:06:47;;;;;;;23.87;9.37;;;-3.80;99.90;;;;;;5023697;28;20382;-69
2024/01/10 05:09:13;;;;;;;23.77;9.03;;;-3.80;99.90;;;;;;5025981;28;20077;-68
2024/01/10 05:11:39;;;;;;;19.35;8.52;;;-3.80;99.90;;;;;;5005348;28;20178;-69
2024/01/10 05:14:05;;;;;;;18.40;8.30;;;-3.80;99.90;;;;;;5019413;28;20482;-69
2024/01/10 05:16:33;;;;;;;21.73;9.80;;;-3.80;99.90;;;;;;5027083;28;20033;-69
2024/01/10 05:19:02;;;;;;;18.33;8.37;;;-3.90;99.90;;;;;;5017919;28;20045;-68
2024/01/10 05:21:29;;;;;;;17.40;7.78;;;-3.80;99.90;;;;;;5009986;28;20059;-69
2024/01/10 05:23:55;;;;;;;18.90;8.57;;;-3.80;99.90;;;;;;5023351;28;20120;-69
2024/01/10 05:26:21;;;;;;;19.87;9.00;;;-3.90;99.90;;;;;;5024335;28;20129;-69
2024/01/10 05:28:49;;;;;;;17.73;9.07;;;-3.90;99.90;;;;;;5016677;28;20042;-69
2024/01/10 05:31:16;;;;;;;17.48;7.97;;;-3.80;99.90;;;;;;4995092;28;20331;-68
2024/01/10 05:33:42;;;;;;;17.88;8.52;;;-3.90;99.90;;;;;;5020458;28;20450;-69
2024/01/10 05:36:11;;;;;;;17.47;8.10;;;-3.90;99.90;;;;;;5022034;28;20155;-68
2024/01/10 05:38:37;;;;;;;20.17;8.68;;;-3.90;99.90;;;;;;5021868;28;20475;-69
2024/01/10 05:41:03;;;;;;;18.45;8.60;;;-3.90;99.90;;;;;;5023634;28;20244;-69
2024/01/10 05:43:28;;;;;;;18.17;7.33;;;-3.90;99.90;;;;;;5007187;28;20060;-69
2024/01/10 05:45:54;;;;;;;17.60;8.17;;;-3.90;99.90;;;;;;5024657;28;20399;-70
2024/01/10 05:48:19;;;;;;;17.67;8.57;;;-3.90;99.90;;;;;;5024491;28;20343;-69
2024/01/10 05:50:45;;;;;;;18.90;8.00;;;-3.90;99.90;;;;;;5022790;28;20037;-69
2024/01/10 05:53:16;;;;;;;19.23;9.17;;;-4.00;99.90;;;;;;5023978;28;20065;-69
2024/01/10 05:55:43;;;;;;;15.02;7.68;;;-4.00;99.90;;;;;;5021530;28;20049;-69
2024/01/10 05:58:10;;;;;;;14.68;6.97;;;-3.90;99.90;;;;;;5025861;28;20076;-69
2024/01/10 06:00:35;;;;;;;18.95;8.55;;;-4.00;99.90;;;;;;5021772;28;20103;-69
2024/01/10 06:03:01;;;;;;;17.93;8.47;;;-4.00;99.90;;;;;;5022343;28;20266;-69
2024/01/10 06:05:26;;;;;;;19.30;9.03;;;-4.00;99.90;;;;;;5021058;28;20053;-69
2024/01/10 06:07:52;;;;;;;18.83;9.00;;;-4.00;99.90;;;;;;5023970;28;20132;-69
2024/01/10 06:10:18;;;;;;;17.67;8.13;;;-4.00;99.90;;;;;;5007401;28;20127;-69
2024/01/10 06:12:43;;;;;;;19.93;8.30;;;-4.00;99.90;;;;;;5023329;28;20457;-69
2024/01/10 06:15:09;;;;;;;16.53;8.27;;;-4.00;99.90;;;;;;5022043;28;20048;-69
2024/01/10 06:17:35;;;;;;;23.10;9.68;;;-4.00;99.90;;;;;;5024281;28;20038;-69
2024/01/10 06:20:02;;;;;;;23.90;9.67;;;-4.00;99.90;;;;;;5022010;28;20041;-69
2024/01/10 06:22:28;;;;;;;17.63;8.80;;;-4.00;99.90;;;;;;5004831;28;20124;-69
2024/01/10 06:24:54;;;;;;;18.00;9.53;;;-4.00;99.90;;;;;;5018033;28;20199;-68
2024/01/10 06:27:19;;;;;;;20.23;9.70;;;-4.00;99.90;;;;;;5024093;28;20585;-71
2024/01/10 06:29:45;;;;;;;18.00;9.00;;;-4.00;99.90;;;;;;5020469;28;20167;-72
2024/01/10 06:32:11;;;;;;;21.40;7.60;;;-4.00;99.90;;;;;;5019209;28;20124;-71
2024/01/10 06:34:37;;;;;;;22.52;9.55;;;-4.00;99.90;;;;;;5021396;28;20503;-71
2024/01/10 06:37:03;;;;;;;14.50;8.13;;;-4.00;99.90;;;;;;5020458;28;20045;-71
2024/01/10 06:39:28;;;;;;;18.42;7.97;;;-4.00;99.90;;;;;;5025721;28;20033;-71
2024/01/10 06:41:55;;;;;;;19.37;8.50;;;-4.10;99.90;;;;;;5018154;28;20053;-71
2024/01/10 06:44:20;;;;;;;15.85;8.63;;;-4.00;99.90;;;;;;5005887;28;20049;-73
2024/01/10 06:46:46;;;;;;;15.90;9.13;;;-4.00;99.90;;;;;;5023694;28;20049;-73
2024/01/10 06:49:12;;;;;;;14.90;8.13;;;-4.00;99.90;;;;;;5022155;28;20095;-74
2024/01/10 06:51:38;;;;;;;16.33;8.15;;;-4.00;99.90;;;;;;5021163;28;20060;-73
2024/01/10 06:54:04;;;;;;;23.47;9.70;;;-4.00;99.90;;;;;;5020857;28;20045;-73
2024/01/10 06:56:34;;;;;;;20.73;8.20;;;-4.00;99.90;;;;;;5020520;28;20384;-72
2024/01/10 06:59:00;;;;;;;19.83;8.93;;;-4.00;99.90;;;;;;5019907;28;20041;-75
2024/01/10 07:01:27;;;;;;;19.27;8.73;;;-4.00;99.90;;;;;;5023851;28;20052;-72
2024/01/10 07:03:54;;;;;;;;;;;-4.00;99.90;;;;;;5023983;28;20407;-74
2024/01/10 07:06:27;;;;;;;17.38;8.02;;;-4.00;99.90;;;;;;5024612;28;20429;-70
2024/01/10 07:08:53;;;;;;;18.52;7.55;;;-4.00;99.90;;;;;;5021796;28;20049;-68
2024/01/10 07:11:22;;;;;;;20.97;9.30;;;-4.00;99.90;;;;;;5020353;28;20033;-69
2024/01/10 07:13:50;;;;;;;17.83;8.25;;;-4.00;99.90;;;;;;5023095;28;20033;-69
2024/01/10 07:16:16;;;;;;;18.55;8.80;;;-4.00;99.90;;;;;;5020127;28;20069;-69
2024/01/10 07:18:46;;;;;;;16.58;8.07;;;-4.00;99.90;;;;;;5024516;28;20041;-69
2024/01/10 07:21:11;;;;;;;21.75;9.07;;;-3.90;99.90;;;;;;5020080;28;20522;-70
2024/01/10 07:23:42;;;;;;;18.03;8.30;;;-3.90;99.90;;;;;;5023272;28;20025;-70
2024/01/10 07:26:08;;;;;;;17.33;8.43;;;-4.00;99.90;;;;;;5019833;28;20037;-71
2024/01/10 07:28:34;;;;;;;16.87;9.23;;;-3.90;99.90;;;;;;5019297;28;20049;-71
2024/01/10 07:31:02;;;;;;;23.23;10.67;;;-3.90;99.90;;;;;;5013291;28;20536;-71
2024/01/10 07:33:31;;;;;;;19.15;9.40;;;-3.90;99.90;;;;;;5010727;28;20123;-71
2024/01/10 07:36:01;;;;;;;19.77;9.87;;;-3.90;99.90;;;;;;5032330;28;20514;-70
2024/01/10 07:38:26;;;;;;;21.08;10.25;;;-3.90;99.90;;;;;;5020394;28;20147;-71
2024/01/10 07:40:52;;;;;;;23.83;11.53;;;-4.00;99.90;;;;;;5025004;28;21161;-71
2024/01/10 07:43:20;;;;;;;22.08;10.07;;;-4.00;99.90;;;;;;5021556;28;20494;-71
2024/01/10 07:45:46;;;;;;;25.10;10.70;;;-4.00;99.90;;;;;;5002829;28;20091;-71
2024/01/10 07:48:11;;;;;;;23.63;11.43;;;-4.00;99.90;;;;;;5018392;28;20103;-71
2024/01/10 07:50:37;;;;;;;23.33;10.47;;;-4.00;99.90;;;;;;5022186;28;20112;-71
2024/01/10 07:53:03;;;;;;;21.90;10.63;;;-4.00;99.90;;;;;;5005316;28;20044;-71
2024/01/10 07:55:29;;;;;;;24.23;11.20;;;-3.90;99.90;;;;;;5019529;28;20139;-70
2024/01/10 07:57:55;;;;;;;22.15;10.23;;;-3.90;99.90;;;;;;5017539;28;20048;-70
2024/01/10 08:00:20;;;;;;;22.97;10.60;;;-3.90;99.90;;;;;;5022527;28;20053;-70
2024/01/10 08:02:46;;;;;;;21.57;9.80;;;-4.00;99.90;;;;;;5023919;28;20055;-70
2024/01/10 08:05:12;;;;;;;21.87;10.77;;;-3.90;99.90;;;;;;5021370;28;20045;-70
2024/01/10 08:07:38;;;;;;;20.45;10.43;;;-3.90;99.90;;;;;;5020484;28;20091;-70
2024/01/10 08:10:09;;;;;;;23.65;10.98;;;-3.90;99.90;;;;;;5024896;28;20107;-70
2024/01/10 08:12:38;;;;;;;25.75;10.60;;;-3.90;99.90;;;;;;5022999;28;20074;-70
2024/01/10 08:15:06;;;;;;;22.20;10.13;;;-3.90;99.90;;;;;;5022144;28;20046;-70
2024/01/10 08:17:32;;;;;;;21.38;10.25;;;-3.70;99.90;;;;;;5018221;28;20068;-70
2024/01/10 08:19:58;;;;;;;;;;;-3.80;99.90;;;;;;5007109;28;20043;-70
2024/01/10 08:22:24;;;;;;;20.95;8.85;;;-3.80;99.90;;;;;;5018343;28;20289;-70
2024/01/10 08:24:49;;;;;;;18.60;9.80;;;-3.80;99.90;;;;;;5018370;28;20060;-70
2024/01/10 08:27:17;;;;;;;21.77;10.23;;;-3.80;99.90;;;;;;5022404;28;20041;-70
2024/01/10 08:29:42;;;;;;;18.15;8.90;;;-3.80;99.90;;;;;;5021773;28;20045;-70
2024/01/10 08:32:08;;;;;;;20.40;8.80;;;-3.70;99.90;;;;;;5014416;28;20068;-70
2024/01/10 08:34:33;;;;;;;27.70;11.90;;;-3.70;99.90;;;;;;5020439;28;20061;-70
2024/01/10 08:36:59;;;;;;;19.47;10.17;;;-3.70;99.90;;;;;;5019984;28;20046;-70
2024/01/10 08:39:28;;;;;;;26.43;10.87;;;-3.70;99.90;;;;;;5020335;28;20037;-70
2024/01/10 08:41:53;;;;;;;18.08;9.40;;;-3.70;99.90;;;;;;5019967;28;20064;-70
2024/01/10 08:44:19;;;;;;;24.07;10.57;;;-3.60;99.90;;;;;;5005540;28;20045;-70
2024/01/10 08:46:45;;;;;;;19.63;9.30;;;-3.60;99.90;;;;;;5020196;28;20414;-70
2024/01/10 08:49:11;;;;;;;19.30;9.50;;;-3.60;99.90;;;;;;5022747;28;20054;-70
2024/01/10 08:51:37;;;;;;;20.70;9.45;;;-3.60;99.90;;;;;;5021746;28;20115;-70
2024/01/10 08:54:03;;;;;;;22.23;9.93;;;-3.50;99.90;;;;;;5021595;28;20041;-70
2024/01/10 08:56:29;;;;;;;19.08;8.55;;;-3.50;99.90;;;;;;5019948;28;20064;-70
2024/01/10 08:58:54;;;;;;;22.83;9.13;;;-3.50;99.90;;;;;;5022001;28;20054;-70
2024/01/10 09:01:20;;;;;;;19.17;8.90;;;-3.40;99.90;;;;;;5022283;28;20045;-70
2024/01/10 09:03:46;;;;;;;20.90;8.33;;;-3.40;99.90;;;;;;5021826;28;20090;-70
2024/01/10 09:06:13;;;;;;;18.65;7.97;;;-3.40;99.90;;;;;;5022874;28;20360;-70
2024/01/10 09:08:39;;;;;;;19.33;9.13;;;-3.30;99.90;;;;;;5021303;28;20045;-70
2024/01/10 09:11:05;;;;;;;20.90;7.93;;;-3.30;99.90;;;;;;5005901;28;20041;-70
2024/01/10 09:13:31;;;;;;;20.73;8.70;;;-3.30;99.90;;;;;;5022329;28;20064;-70
2024/01/10 09:15:56;;;;;;;21.73;9.00;;;-3.20;99.90;;;;;;5020422;28;20041;-70
2024/01/10 09:18:22;;;;;;;16.57;7.63;;;-3.20;99.90;;;;;;5017268;28;20173;-70
2024/01/10 09:20:48;;;;;;;20.20;8.30;;;-3.20;99.90;;;;;;5018682;28;20056;-70
2024/01/10 09:23:14;;;;;;;15.87;7.67;;;-3.10;99.90;;;;;;5022237;28;20034;-70
2024/01/10 09:25:40;;;;;;;20.63;8.00;;;-3.10;99.90;;;;;;5001727;28;20053;-70
2024/01/10 09:28:05;;;;;;;17.67;8.70;;;-3.10;99.90;;;;;;5021922;28;20065;-70
2024/01/10 09:30:31;;;;;;;20.20;8.63;;;-3.00;99.90;;;;;;5021777;28;20309;-70
2024/01/10 09:32:56;;;;;;;20.60;8.27;;;-2.90;99.90;;;;;;5013805;28;20409;-70
2024/01/10 09:35:22;;;;;;;16.70;7.70;;;-2.90;99.90;;;;;;5019564;28;20128;-71
2024/01/10 09:37:49;;;;;;;22.33;9.48;;;-2.80;99.90;;;;;;5021296;28;20557;-71
2024/01/10 09:40:16;;;;;;;;;;;-2.80;99.90;;;;;;5019289;28;20095;-70
2024/01/10 09:42:43;;;;;;;16.45;7.57;;;-2.80;99.90;;;;;;5019478;28;19916;-71
2024/01/10 09:45:11;;;;;;;19.45;8.02;;;-2.70;99.90;;;;;;5005604;28;20045;-71
2024/01/10 09:47:39;;;;;;;17.17;8.13;;;-2.60;99.90;;;;;;5021272;28;20387;-70
2024/01/10 09:50:05;;;;;;;20.60;8.30;;;-2.60;99.90;;;;;;5024758;28;20049;-70
2024/01/10 09:52:39;;;;;;;18.42;8.50;;;-2.50;99.90;;;;;;5024518;28;20042;-70
2024/01/10 09:55:05;;;;;;;18.45;8.43;;;-2.50;99.90;;;;;;5021626;28;20049;-70
2024/01/10 09:57:30;;;;;;;19.80;8.57;;;-2.40;99.90;;;;;;5024218;28;20379;-70
2024/01/10 09:59:56;;;;;;;19.27;8.30;;;-2.30;99.90;;;;;;5024897;28;20041;-70
2024/01/10 10:02:23;;;;;;;20.77;7.57;;;-2.20;99.90;;;;;;5024977;28;20056;-70
2024/01/10 10:05:08;;;;;;;20.35;8.45;;;-2.20;99.90;;;;;;5026146;28;20136;-70
2024/01/10 10:07:50;;;;;;;26.15;10.07;;;-2.20;99.90;;;;;;5022999;28;20056;-70
2024/01/10 10:10:18;;;;;;;19.52;8.77;;;-2.00;99.90;;;;;;5018653;28;20577;-70
2024/01/10 10:12:45;;;;;;;21.65;8.88;;;-2.00;99.90;;;;;;5023069;28;20066;-70
2024/01/10 10:15:16;;;;;;;19.73;8.77;;;-1.90;99.90;;;;;;5019284;28;20617;-70
2024/01/10 10:17:47;;;;;;;22.70;8.48;;;-1.90;99.90;;;;;;5020895;28;20540;-69
2024/01/10 10:20:21;;;;;;;20.85;8.38;;;-1.80;99.90;;;;;;5008729;28;20099;-70
2024/01/10 10:23:03;;;;;;;19.95;8.90;;;-1.70;99.90;;;;;;5016489;28;20458;-70
2024/01/10 10:25:42;;;;;;;21.73;8.60;;;-1.60;99.90;;;;;;5020215;28;20423;-69
2024/01/10 10:28:08;;;;;;;22.20;9.18;;;-1.60;99.90;;;;;;5006876;28;20603;-70
2024/01/10 10:30:34;;;;;;;21.90;9.73;;;-1.50;99.90;;;;;;5021057;28;20037;-69
2024/01/10 10:33:04;;;;;;;20.08;7.80;;;-1.40;99.90;;;;;;5023935;28;20156;-70
2024/01/10 10:35:29;;;;;;;18.98;7.97;;;-1.30;99.90;;;;;;5000776;28;20077;-69
2024/01/10 10:37:55;;;;;;;21.67;7.80;;;-1.30;99.90;;;;;;5023771;28;20460;-70
2024/01/10 10:40:22;;;;;;;18.80;7.43;;;-1.20;99.90;;;;;;5024822;28;20041;-70
2024/01/10 10:42:48;;;;;;;;;;;-1.10;99.90;;;;;;5022549;28;20421;-69
2024/01/10 10:45:18;;;;;;;14.35;5.75;;;-1.10;99.90;;;;;;5017374;28;20012;-69
2024/01/10 10:47:49;;;;;;;15.82;6.10;;;-1.00;99.90;;;;;;5003777;28;20081;-70
2024/01/10 10:50:22;;;;;;;19.25;7.28;;;-1.00;99.90;;;;;;5020338;28;20072;-70
2024/01/10 10:52:49;;;;;;;14.55;6.30;;;-0.90;99.90;;;;;;5020882;28;20038;-69
2024/01/10 10:55:17;;;;;;;17.35;6.03;;;-0.80;99.90;;;;;;5020190;28;20438;-70
2024/01/10 10:57:47;;;;;;;19.50;5.82;;;-0.80;99.90;;;;;;5018933;28;20076;-69
2024/01/10 11:00:27;;;;;;;13.70;6.13;;;-0.80;99.90;;;;;;5021468;28;20041;-69
2024/01/10 11:02:54;;;;;;;16.08;6.50;;;-0.70;99.90;;;;;;5014938;28;20091;-70
2024/01/10 11:05:21;;;;;;;17.92;7.53;;;-0.60;99.90;;;;;;5017916;28;20049;-69
2024/01/10 11:07:48;;;;;;;16.52;5.95;;;-0.60;99.90;;;;;;4992654;28;20119;-68
2024/01/10 11:10:24;;;;;;;14.00;5.90;;;-0.60;99.90;;;;;;5022298;28;20084;-69
2024/01/10 11:13:03;;;;;;;13.75;5.40;;;-0.50;99.90;;;;;;5015551;28;20478;-69
2024/01/10 11:15:50;;;;;;;15.40;6.43;;;-0.50;99.90;;;;;;5019510;28;20037;-68
2024/01/10 11:18:48;;;;;;;13.82;5.45;;;-0.50;99.90;;;;;;5018907;28;20106;-68
2024/01/10 11:21:16;;;;;;;9.95;4.97;;;-0.40;99.90;;;;;;5003699;28;20053;-68
2024/01/10 11:23:49;;;;;;;15.63;6.20;;;-0.30;99.90;;;;;;5019098;28;20417;-68
2024/01/10 11:26:16;;;;;;;12.68;5.15;;;-0.20;99.90;;;;;;5019307;28;20045;-68
2024/01/10 11:28:42;;;;;;;16.60;5.07;;;-0.20;99.90;;;;;;5012268;28;20045;-68
2024/01/10 11:31:09;;;;;;;11.90;4.70;;;-0.20;99.90;;;;;;5021744;28;20498;-68
2024/01/10 11:33:41;;;;;;;13.93;5.72;;;-0.10;99.90;;;;;;5016408;28;20045;-68
2024/01/10 11:36:10;;;;;;;14.85;6.07;;;-0.10;99.90;;;;;;5013635;28;20099;-68
2024/01/10 11:38:41;;;;;;;13.30;5.07;;;-0.10;99.90;;;;;;5018902;28;20510;-68
2024/01/10 11:41:08;;;;;;;12.20;4.68;;;0.00;99.90;;;;;;5017250;28;20050;-68
2024/01/10 11:43:34;;;;;;;13.52;4.95;;;0.10;99.90;;;;;;5011287;28;20081;-68
2024/01/10 11:46:04;;;;;;;12.80;5.03;;;0.10;99.90;;;;;;5003658;28;20103;-68
2024/01/10 11:48:31;;;;;;;12.05;4.50;;;0.10;99.90;;;;;;5019110;28;20056;-68
2024/01/10 11:51:02;;;;;;;16.42;5.03;;;0.20;99.90;;;;;;5020929;28;20056;-68
2024/01/10 11:53:42;;;;;;;12.05;4.60;;;0.20;99.90;;;;;;5019128;28;20052;-68
2024/01/10 11:56:13;;;;;;;12.25;4.80;;;0.30;99.90;;;;;;5012569;28;20045;-68
2024/01/10 11:59:11;;;;;;;12.27;5.15;;;0.30;99.90;;;;;;5019522;28;20057;-68
2024/01/10 12:01:38;;;;;;;14.80;4.87;;;0.40;99.90;;;;;;5021961;28;20386;-68
2024/01/10 12:04:04;;;;;;;9.73;4.80;;;0.40;99.90;;;;;;5019555;28;20137;-68
2024/01/10 12:06:36;;;;;;;13.55;5.38;;;0.50;99.90;;;;;;5021106;28;20045;-68
2024/01/10 12:09:08;;;;;;;13.48;5.43;;;0.50;99.90;;;;;;5019476;28;20049;-68
2024/01/10 12:11:38;;;;;;;14.85;5.78;;;0.50;99.90;;;;;;5011139;28;20511;-68
2024/01/10 12:14:05;;;;;;;13.77;5.05;;;0.50;99.90;;;;;;5012414;28;20045;-68
2024/01/10 12:16:32;;;;;;;11.40;4.88;;;0.60;99.90;;;;;;5038809;28;20073;-68
2024/01/10 12:18:58;;;;;;;13.77;5.75;;;0.60;99.90;;;;;;5017263;28;20049;-68
2024/01/10 12:21:23;;;;;;;13.60;4.77;;;0.70;99.90;;;;;;5020082;28;20042;-68
2024/01/10 12:23:51;;;;;;;11.47;4.77;;;0.80;99.90;;;;;;5007043;28;20129;-68
2024/01/10 12:26:17;;;;;;;15.90;5.00;;;0.80;99.90;;;;;;5022443;28;20103;-69
2024/01/10 12:28:58;;;;;;;9.23;4.45;;;0.80;99.90;;;;;;5016698;28;20282;-68
2024/01/10 12:31:27;;;;;;;10.30;4.13;;;0.90;99.90;;;;;;5019770;28;20050;-68
2024/01/10 12:33:55;;;;;;;12.18;5.50;;;0.90;99.90;;;;;;5009866;28;20526;-68
2024/01/10 12:36:21;;;;;;;13.50;5.50;;;0.90;99.90;;;;;;5024238;28;20103;-69
2024/01/10 12:38:47;;;;;;;10.68;4.45;;;0.90;99.90;;;;;;5001199;28;20046;-68